sensor_id;sensor_type;location;lat;lon;timestamp;P1;durP1;ratioP1;P2;durP2;ratioP2
52948;SDS011;38812;50.942;3.644;2023-02-11T00:00:09;21.92;;;3.97;;
52948;SDS011;38812;50.942;3.644;2023-02-11T00:02:36;19.77;;;4.78;;
52948;SDS011;38812;50.942;3.644;2023-02-11T00:05:02;18.67;;;4.95;;
52948;SDS011;38812;50.942;3.644;2023-02-11T00:07:28;21.05;;;4.50;;
52948;SDS011;38812;50.942;3.644;2023-02-11T00:09:54;16.83;;;3.30;;
52948;SDS011;38812;50.942;3.644;2023-02-11T00:12:20;18.63;;;4.30;;
52948;SDS011;38812;50.942;3.644;2023-02-11T00:14:45;10.38;;;3.80;;
52948;SDS011;38812;50.942;3.644;2023-02-11T00:17:10;21.17;;;5.30;;
52948;SDS011;38812;50.942;3.644;2023-02-11T00:19:36;13.32;;;3.50;;
52948;SDS011;38812;50.942;3.644;2023-02-11T00:22:01;22.77;;;4.40;;
52948;SDS011;38812;50.942;3.644;2023-02-11T00:24:27;16.85;;;4.10;;
52948;SDS011;38812;50.942;3.644;2023-02-11T00:26:54;22.38;;;4.70;;
52948;SDS011;38812;50.942;3.644;2023-02-11T00:29:19;14.48;;;4.45;;
52948;SDS011;38812;50.942;3.644;2023-02-11T00:31:45;17.98;;;6.00;;
52948;SDS011;38812;50.942;3.644;2023-02-11T00:34:10;20.30;;;5.82;;
52948;SDS011;38812;50.942;3.644;2023-02-11T00:36:36;22.15;;;7.13;;
52948;SDS011;38812;50.942;3.644;2023-02-11T00:39:01;17.52;;;6.30;;
52948;SDS011;38812;50.942;3.644;2023-02-11T00:41:27;20.63;;;7.03;;
52948;SDS011;38812;50.942;3.644;2023-02-11T00:43:53;16.27;;;7.60;;
52948;SDS011;38812;50.942;3.644;2023-02-11T00:46:18;24.02;;;7.35;;
52948;SDS011;38812;50.942;3.644;2023-02-11T00:48:44;21.80;;;7.68;;
52948;SDS011;38812;50.942;3.644;2023-02-11T00:51:09;22.00;;;8.07;;
52948;SDS011;38812;50.942;3.644;2023-02-11T00:53:35;22.95;;;7.68;;
52948;SDS011;38812;50.942;3.644;2023-02-11T00:56:01;15.70;;;7.97;;
52948;SDS011;38812;50.942;3.644;2023-02-11T00:58:27;24.08;;;8.52;;
52948;SDS011;38812;50.942;3.644;2023-02-11T01:00:53;23.23;;;9.35;;
52948;SDS011;38812;50.942;3.644;2023-02-11T01:03:19;26.20;;;8.85;;
52948;SDS011;38812;50.942;3.644;2023-02-11T01:05:44;24.60;;;8.27;;
52948;SDS011;38812;50.942;3.644;2023-02-11T01:08:10;22.25;;;8.90;;
52948;SDS011;38812;50.942;3.644;2023-02-11T01:10:36;29.80;;;9.50;;
52948;SDS011;38812;50.942;3.644;2023-02-11T01:13:02;20.27;;;8.88;;
52948;SDS011;38812;50.942;3.644;2023-02-11T01:15:27;22.60;;;8.88;;
52948;SDS011;38812;50.942;3.644;2023-02-11T01:17:53;25.30;;;9.35;;
52948;SDS011;38812;50.942;3.644;2023-02-11T01:20:20;19.80;;;9.35;;
52948;SDS011;38812;50.942;3.644;2023-02-11T01:22:47;24.65;;;9.38;;
52948;SDS011;38812;50.942;3.644;2023-02-11T01:25:12;26.73;;;9.98;;
52948;SDS011;38812;50.942;3.644;2023-02-11T01:27:38;26.02;;;9.98;;
52948;SDS011;38812;50.942;3.644;2023-02-11T01:30:04;23.40;;;9.57;;
52948;SDS011;38812;50.942;3.644;2023-02-11T01:32:32;18.85;;;8.25;;
52948;SDS011;38812;50.942;3.644;2023-02-11T01:34:57;21.25;;;8.68;;
52948;SDS011;38812;50.942;3.644;2023-02-11T01:37:23;28.80;;;9.80;;
52948;SDS011;38812;50.942;3.644;2023-02-11T01:39:48;29.65;;;9.70;;
52948;SDS011;38812;50.942;3.644;2023-02-11T01:42:21;29.70;;;11.38;;
52948;SDS011;38812;50.942;3.644;2023-02-11T01:44:51;19.20;;;8.18;;
52948;SDS011;38812;50.942;3.644;2023-02-11T01:47:18;19.17;;;7.45;;
52948;SDS011;38812;50.942;3.644;2023-02-11T01:50:17;20.67;;;7.57;;
52948;SDS011;38812;50.942;3.644;2023-02-11T01:52:36;34.83;;;8.82;;
52948;SDS011;38812;50.942;3.644;2023-02-11T01:55:05;25.92;;;7.63;;
52948;SDS011;38812;50.942;3.644;2023-02-11T01:57:53;18.73;;;8.18;;
52948;SDS011;38812;50.942;3.644;2023-02-11T02:00:26;16.25;;;7.80;;
52948;SDS011;38812;50.942;3.644;2023-02-11T02:03:02;21.25;;;7.80;;
52948;SDS011;38812;50.942;3.644;2023-02-11T02:08:34;25.65;;;7.20;;
52948;SDS011;38812;50.942;3.644;2023-02-11T02:11:04;16.50;;;6.88;;
52948;SDS011;38812;50.942;3.644;2023-02-11T02:13:31;24.42;;;8.93;;
52948;SDS011;38812;50.942;3.644;2023-02-11T02:16:02;20.05;;;7.15;;
52948;SDS011;38812;50.942;3.644;2023-02-11T02:32:48;25.30;;;7.93;;
52948;SDS011;38812;50.942;3.644;2023-02-11T02:35:23;23.83;;;7.53;;
52948;SDS011;38812;50.942;3.644;2023-02-11T02:40:32;21.13;;;7.30;;
52948;SDS011;38812;50.942;3.644;2023-02-11T02:43:04;21.73;;;6.95;;
52948;SDS011;38812;50.942;3.644;2023-02-11T02:45:33;17.25;;;8.02;;
52948;SDS011;38812;50.942;3.644;2023-02-11T02:47:58;20.30;;;6.97;;
52948;SDS011;38812;50.942;3.644;2023-02-11T02:50:26;29.33;;;9.05;;
52948;SDS011;38812;50.942;3.644;2023-02-11T03:11:54;15.88;;;7.72;;
52948;SDS011;38812;50.942;3.644;2023-02-11T03:14:20;20.75;;;7.93;;
52948;SDS011;38812;50.942;3.644;2023-02-11T03:16:47;17.23;;;8.02;;
52948;SDS011;38812;50.942;3.644;2023-02-11T03:19:15;25.27;;;8.15;;
52948;SDS011;38812;50.942;3.644;2023-02-11T03:21:45;15.88;;;8.10;;
52948;SDS011;38812;50.942;3.644;2023-02-11T03:24:15;19.42;;;8.10;;
52948;SDS011;38812;50.942;3.644;2023-02-11T03:26:51;21.88;;;8.43;;
52948;SDS011;38812;50.942;3.644;2023-02-11T03:29:29;25.55;;;7.78;;
52948;SDS011;38812;50.942;3.644;2023-02-11T03:32:06;20.65;;;7.68;;
52948;SDS011;38812;50.942;3.644;2023-02-11T03:34:43;18.85;;;7.82;;
52948;SDS011;38812;50.942;3.644;2023-02-11T03:37:22;16.30;;;7.18;;
52948;SDS011;38812;50.942;3.644;2023-02-11T03:39:54;21.63;;;7.25;;
52948;SDS011;38812;50.942;3.644;2023-02-11T03:42:25;20.20;;;7.75;;
52948;SDS011;38812;50.942;3.644;2023-02-11T03:44:56;18.13;;;7.05;;
52948;SDS011;38812;50.942;3.644;2023-02-11T03:47:26;14.45;;;7.47;;
52948;SDS011;38812;50.942;3.644;2023-02-11T03:49:54;19.48;;;7.47;;
52948;SDS011;38812;50.942;3.644;2023-02-11T03:52:22;18.67;;;8.88;;
52948;SDS011;38812;50.942;3.644;2023-02-11T03:54:50;18.20;;;7.10;;
52948;SDS011;38812;50.942;3.644;2023-02-11T03:57:20;24.25;;;7.70;;
52948;SDS011;38812;50.942;3.644;2023-02-11T03:59:53;17.65;;;7.32;;
52948;SDS011;38812;50.942;3.644;2023-02-11T04:02:24;23.63;;;9.20;;
52948;SDS011;38812;50.942;3.644;2023-02-11T04:04:53;23.27;;;9.63;;
52948;SDS011;38812;50.942;3.644;2023-02-11T04:07:18;20.92;;;7.82;;
52948;SDS011;38812;50.942;3.644;2023-02-11T04:09:44;16.52;;;7.68;;
52948;SDS011;38812;50.942;3.644;2023-02-11T04:12:09;21.98;;;8.80;;
52948;SDS011;38812;50.942;3.644;2023-02-11T04:14:34;22.65;;;8.57;;
52948;SDS011;38812;50.942;3.644;2023-02-11T04:17:00;22.25;;;8.48;;
52948;SDS011;38812;50.942;3.644;2023-02-11T04:19:25;21.67;;;8.25;;
52948;SDS011;38812;50.942;3.644;2023-02-11T04:21:51;20.85;;;8.60;;
52948;SDS011;38812;50.942;3.644;2023-02-11T04:24:16;21.92;;;9.32;;
52948;SDS011;38812;50.942;3.644;2023-02-11T04:26:43;20.85;;;7.95;;
52948;SDS011;38812;50.942;3.644;2023-02-11T04:29:08;18.13;;;8.13;;
52948;SDS011;38812;50.942;3.644;2023-02-11T04:31:33;21.40;;;7.78;;
52948;SDS011;38812;50.942;3.644;2023-02-11T04:33:59;20.30;;;8.55;;
52948;SDS011;38812;50.942;3.644;2023-02-11T04:36:24;19.08;;;7.75;;
52948;SDS011;38812;50.942;3.644;2023-02-11T04:38:49;21.77;;;8.13;;
52948;SDS011;38812;50.942;3.644;2023-02-11T04:41:15;18.70;;;7.88;;
52948;SDS011;38812;50.942;3.644;2023-02-11T04:43:40;23.15;;;8.30;;
52948;SDS011;38812;50.942;3.644;2023-02-11T04:46:05;18.60;;;8.35;;
52948;SDS011;38812;50.942;3.644;2023-02-11T04:48:31;18.20;;;8.00;;
52948;SDS011;38812;50.942;3.644;2023-02-11T04:50:56;22.23;;;8.13;;
52948;SDS011;38812;50.942;3.644;2023-02-11T04:53:21;19.88;;;8.50;;
52948;SDS011;38812;50.942;3.644;2023-02-11T04:55:48;17.38;;;8.63;;
52948;SDS011;38812;50.942;3.644;2023-02-11T04:58:14;22.70;;;8.80;;
52948;SDS011;38812;50.942;3.644;2023-02-11T05:00:40;16.65;;;9.48;;
52948;SDS011;38812;50.942;3.644;2023-02-11T05:03:05;21.10;;;10.20;;
52948;SDS011;38812;50.942;3.644;2023-02-11T05:05:31;32.25;;;11.60;;
52948;SDS011;38812;50.942;3.644;2023-02-11T05:07:56;23.42;;;9.38;;
52948;SDS011;38812;50.942;3.644;2023-02-11T05:10:21;19.17;;;9.07;;
52948;SDS011;38812;50.942;3.644;2023-02-11T05:12:47;22.40;;;8.23;;
52948;SDS011;38812;50.942;3.644;2023-02-11T05:15:13;23.15;;;9.40;;
52948;SDS011;38812;50.942;3.644;2023-02-11T05:17:39;17.70;;;9.20;;
52948;SDS011;38812;50.942;3.644;2023-02-11T05:20:05;28.90;;;8.75;;
52948;SDS011;38812;50.942;3.644;2023-02-11T05:22:30;14.25;;;8.90;;
52948;SDS011;38812;50.942;3.644;2023-02-11T05:24:56;20.33;;;8.80;;
52948;SDS011;38812;50.942;3.644;2023-02-11T05:27:21;25.27;;;9.70;;
52948;SDS011;38812;50.942;3.644;2023-02-11T05:29:47;28.08;;;10.23;;
52948;SDS011;38812;50.942;3.644;2023-02-11T05:32:12;18.85;;;11.43;;
52948;SDS011;38812;50.942;3.644;2023-02-11T05:34:37;18.13;;;9.93;;
52948;SDS011;38812;50.942;3.644;2023-02-11T05:37:03;24.15;;;9.20;;
52948;SDS011;38812;50.942;3.644;2023-02-11T05:39:28;16.95;;;9.85;;
52948;SDS011;38812;50.942;3.644;2023-02-11T05:41:53;19.58;;;10.50;;
52948;SDS011;38812;50.942;3.644;2023-02-11T05:44:19;23.77;;;11.38;;
52948;SDS011;38812;50.942;3.644;2023-02-11T05:46:44;25.23;;;10.68;;
52948;SDS011;38812;50.942;3.644;2023-02-11T05:49:10;24.60;;;11.05;;
52948;SDS011;38812;50.942;3.644;2023-02-11T05:51:35;27.02;;;10.18;;
52948;SDS011;38812;50.942;3.644;2023-02-11T05:54:00;23.20;;;9.68;;
52948;SDS011;38812;50.942;3.644;2023-02-11T05:56:26;22.58;;;10.55;;
52948;SDS011;38812;50.942;3.644;2023-02-11T05:58:51;22.15;;;9.73;;
52948;SDS011;38812;50.942;3.644;2023-02-11T06:01:16;22.80;;;12.18;;
52948;SDS011;38812;50.942;3.644;2023-02-11T06:03:42;25.05;;;10.93;;
52948;SDS011;38812;50.942;3.644;2023-02-11T06:06:10;23.30;;;11.15;;
52948;SDS011;38812;50.942;3.644;2023-02-11T06:08:36;21.52;;;11.93;;
52948;SDS011;38812;50.942;3.644;2023-02-11T06:11:02;24.55;;;11.68;;
52948;SDS011;38812;50.942;3.644;2023-02-11T06:13:28;22.70;;;11.38;;
52948;SDS011;38812;50.942;3.644;2023-02-11T06:15:57;25.75;;;11.02;;
52948;SDS011;38812;50.942;3.644;2023-02-11T06:18:23;20.67;;;11.13;;
52948;SDS011;38812;50.942;3.644;2023-02-11T06:20:49;19.83;;;11.15;;
52948;SDS011;38812;50.942;3.644;2023-02-11T06:23:14;32.53;;;11.93;;
52948;SDS011;38812;50.942;3.644;2023-02-11T06:25:39;21.98;;;11.13;;
52948;SDS011;38812;50.942;3.644;2023-02-11T06:28:05;30.27;;;12.52;;
52948;SDS011;38812;50.942;3.644;2023-02-11T06:30:30;31.27;;;13.57;;
52948;SDS011;38812;50.942;3.644;2023-02-11T06:32:56;23.73;;;13.23;;
52948;SDS011;38812;50.942;3.644;2023-02-11T06:35:21;20.58;;;12.02;;
52948;SDS011;38812;50.942;3.644;2023-02-11T06:37:46;29.42;;;12.70;;
52948;SDS011;38812;50.942;3.644;2023-02-11T06:40:13;26.67;;;13.18;;
52948;SDS011;38812;50.942;3.644;2023-02-11T06:42:39;35.88;;;13.18;;
52948;SDS011;38812;50.942;3.644;2023-02-11T06:45:04;28.77;;;15.70;;
52948;SDS011;38812;50.942;3.644;2023-02-11T06:47:33;26.02;;;13.40;;
52948;SDS011;38812;50.942;3.644;2023-02-11T06:49:58;39.55;;;15.25;;
52948;SDS011;38812;50.942;3.644;2023-02-11T06:52:23;28.88;;;14.68;;
52948;SDS011;38812;50.942;3.644;2023-02-11T06:54:49;26.80;;;13.48;;
52948;SDS011;38812;50.942;3.644;2023-02-11T06:57:14;28.92;;;14.60;;
52948;SDS011;38812;50.942;3.644;2023-02-11T06:59:40;28.27;;;14.38;;
52948;SDS011;38812;50.942;3.644;2023-02-11T07:02:05;24.80;;;14.40;;
52948;SDS011;38812;50.942;3.644;2023-02-11T07:04:30;27.63;;;16.17;;
52948;SDS011;38812;50.942;3.644;2023-02-11T07:06:56;29.00;;;15.80;;
52948;SDS011;38812;50.942;3.644;2023-02-11T07:09:21;34.33;;;16.60;;
52948;SDS011;38812;50.942;3.644;2023-02-11T07:11:47;32.40;;;17.10;;
52948;SDS011;38812;50.942;3.644;2023-02-11T07:14:12;30.33;;;15.70;;
52948;SDS011;38812;50.942;3.644;2023-02-11T07:16:37;34.08;;;16.08;;
52948;SDS011;38812;50.942;3.644;2023-02-11T07:19:03;25.38;;;13.25;;
52948;SDS011;38812;50.942;3.644;2023-02-11T07:21:28;31.80;;;16.13;;
52948;SDS011;38812;50.942;3.644;2023-02-11T07:23:54;35.17;;;15.20;;
52948;SDS011;38812;50.942;3.644;2023-02-11T07:26:20;30.70;;;16.83;;
52948;SDS011;38812;50.942;3.644;2023-02-11T07:28:50;30.95;;;15.95;;
52948;SDS011;38812;50.942;3.644;2023-02-11T07:31:17;32.22;;;16.13;;
52948;SDS011;38812;50.942;3.644;2023-02-11T07:33:47;28.08;;;15.88;;
52948;SDS011;38812;50.942;3.644;2023-02-11T07:36:13;38.42;;;16.73;;
52948;SDS011;38812;50.942;3.644;2023-02-11T07:38:40;33.30;;;16.02;;
52948;SDS011;38812;50.942;3.644;2023-02-11T07:41:07;34.13;;;16.77;;
52948;SDS011;38812;50.942;3.644;2023-02-11T07:43:44;31.45;;;17.55;;
52948;SDS011;38812;50.942;3.644;2023-02-11T07:46:11;45.38;;;18.67;;
52948;SDS011;38812;50.942;3.644;2023-02-11T07:48:41;55.33;;;23.88;;
52948;SDS011;38812;50.942;3.644;2023-02-11T07:51:07;45.00;;;25.23;;
52948;SDS011;38812;50.942;3.644;2023-02-11T07:53:38;40.67;;;22.00;;
52948;SDS011;38812;50.942;3.644;2023-02-11T07:56:04;39.30;;;20.40;;
52948;SDS011;38812;50.942;3.644;2023-02-11T07:58:30;34.63;;;19.13;;
52948;SDS011;38812;50.942;3.644;2023-02-11T08:01:02;39.50;;;19.85;;
52948;SDS011;38812;50.942;3.644;2023-02-11T08:03:29;31.38;;;18.50;;
52948;SDS011;38812;50.942;3.644;2023-02-11T08:05:55;28.85;;;17.55;;
52948;SDS011;38812;50.942;3.644;2023-02-11T08:08:20;33.15;;;17.42;;
52948;SDS011;38812;50.942;3.644;2023-02-11T08:10:45;37.65;;;19.05;;
52948;SDS011;38812;50.942;3.644;2023-02-11T08:13:11;32.45;;;18.80;;
52948;SDS011;38812;50.942;3.644;2023-02-11T08:15:36;36.05;;;18.15;;
52948;SDS011;38812;50.942;3.644;2023-02-11T08:18:02;30.95;;;18.38;;
52948;SDS011;38812;50.942;3.644;2023-02-11T08:20:27;40.42;;;19.90;;
52948;SDS011;38812;50.942;3.644;2023-02-11T08:22:52;31.52;;;18.90;;
52948;SDS011;38812;50.942;3.644;2023-02-11T08:25:18;36.40;;;19.35;;
52948;SDS011;38812;50.942;3.644;2023-02-11T08:27:43;34.13;;;19.05;;
52948;SDS011;38812;50.942;3.644;2023-02-11T08:30:09;38.10;;;19.75;;
52948;SDS011;38812;50.942;3.644;2023-02-11T08:32:35;32.70;;;19.23;;
52948;SDS011;38812;50.942;3.644;2023-02-11T08:35:00;34.05;;;19.73;;
52948;SDS011;38812;50.942;3.644;2023-02-11T08:37:25;40.80;;;20.63;;
52948;SDS011;38812;50.942;3.644;2023-02-11T08:39:51;33.65;;;18.65;;
52948;SDS011;38812;50.942;3.644;2023-02-11T08:42:16;39.53;;;21.15;;
52948;SDS011;38812;50.942;3.644;2023-02-11T08:44:42;38.83;;;22.20;;
52948;SDS011;38812;50.942;3.644;2023-02-11T08:47:07;43.15;;;20.88;;
52948;SDS011;38812;50.942;3.644;2023-02-11T08:49:33;32.13;;;20.42;;
52948;SDS011;38812;50.942;3.644;2023-02-11T08:51:59;32.65;;;19.92;;
52948;SDS011;38812;50.942;3.644;2023-02-11T08:54:28;42.35;;;23.75;;
52948;SDS011;38812;50.942;3.644;2023-02-11T08:56:54;41.92;;;23.40;;
52948;SDS011;38812;50.942;3.644;2023-02-11T08:59:20;41.20;;;23.60;;
52948;SDS011;38812;50.942;3.644;2023-02-11T09:01:46;39.90;;;22.55;;
52948;SDS011;38812;50.942;3.644;2023-02-11T09:04:11;43.15;;;25.33;;
52948;SDS011;38812;50.942;3.644;2023-02-11T09:06:37;43.17;;;25.88;;
52948;SDS011;38812;50.942;3.644;2023-02-11T09:09:02;41.22;;;26.13;;
52948;SDS011;38812;50.942;3.644;2023-02-11T09:11:29;41.13;;;26.30;;
52948;SDS011;38812;50.942;3.644;2023-02-11T09:13:56;46.65;;;26.73;;
52948;SDS011;38812;50.942;3.644;2023-02-11T09:16:25;40.30;;;26.73;;
52948;SDS011;38812;50.942;3.644;2023-02-11T09:18:54;42.03;;;26.77;;
52948;SDS011;38812;50.942;3.644;2023-02-11T09:21:21;43.72;;;27.05;;
52948;SDS011;38812;50.942;3.644;2023-02-11T09:23:46;41.85;;;26.35;;
52948;SDS011;38812;50.942;3.644;2023-02-11T09:26:13;47.40;;;26.27;;
52948;SDS011;38812;50.942;3.644;2023-02-11T09:28:48;44.85;;;27.15;;
52948;SDS011;38812;50.942;3.644;2023-02-11T09:31:15;47.28;;;27.10;;
52948;SDS011;38812;50.942;3.644;2023-02-11T09:33:43;49.70;;;29.85;;
52948;SDS011;38812;50.942;3.644;2023-02-11T09:36:17;47.17;;;27.13;;
52948;SDS011;38812;50.942;3.644;2023-02-11T09:38:47;56.28;;;28.80;;
52948;SDS011;38812;50.942;3.644;2023-02-11T09:43:47;49.75;;;27.92;;
52948;SDS011;38812;50.942;3.644;2023-02-11T09:46:18;46.03;;;27.42;;
52948;SDS011;38812;50.942;3.644;2023-02-11T09:48:46;47.60;;;27.60;;
52948;SDS011;38812;50.942;3.644;2023-02-11T09:51:48;46.05;;;27.75;;
52948;SDS011;38812;50.942;3.644;2023-02-11T09:54:14;51.50;;;27.02;;
52948;SDS011;38812;50.942;3.644;2023-02-11T09:56:46;43.40;;;28.98;;
52948;SDS011;38812;50.942;3.644;2023-02-11T09:59:15;43.13;;;26.67;;
52948;SDS011;38812;50.942;3.644;2023-02-11T10:01:58;45.40;;;26.65;;
52948;SDS011;38812;50.942;3.644;2023-02-11T10:15:44;40.08;;;24.85;;
52948;SDS011;38812;50.942;3.644;2023-02-11T10:21:13;40.30;;;26.30;;
52948;SDS011;38812;50.942;3.644;2023-02-11T10:23:59;37.53;;;23.88;;
52948;SDS011;38812;50.942;3.644;2023-02-11T10:26:30;37.20;;;24.17;;
52948;SDS011;38812;50.942;3.644;2023-02-11T10:28:58;35.22;;;24.48;;
52948;SDS011;38812;50.942;3.644;2023-02-11T10:31:38;25.92;;;17.73;;
52948;SDS011;38812;50.942;3.644;2023-02-11T10:34:10;36.50;;;23.45;;
52948;SDS011;38812;50.942;3.644;2023-02-11T10:36:38;35.03;;;22.67;;
52948;SDS011;38812;50.942;3.644;2023-02-11T10:41:43;29.33;;;20.92;;
52948;SDS011;38812;50.942;3.644;2023-02-11T10:44:21;38.83;;;21.60;;
52948;SDS011;38812;50.942;3.644;2023-02-11T10:49:39;33.63;;;21.30;;
52948;SDS011;38812;50.942;3.644;2023-02-11T10:54:39;30.15;;;20.80;;
52948;SDS011;38812;50.942;3.644;2023-02-11T10:57:05;30.48;;;20.95;;
52948;SDS011;38812;50.942;3.644;2023-02-11T10:59:34;28.33;;;20.08;;
52948;SDS011;38812;50.942;3.644;2023-02-11T11:04:43;33.05;;;19.92;;
52948;SDS011;38812;50.942;3.644;2023-02-11T11:09:50;33.03;;;20.48;;
52948;SDS011;38812;50.942;3.644;2023-02-11T11:12:24;34.05;;;21.70;;
52948;SDS011;38812;50.942;3.644;2023-02-11T11:15:33;29.90;;;18.70;;
52948;SDS011;38812;50.942;3.644;2023-02-11T11:17:43;31.40;;;18.48;;
52948;SDS011;38812;50.942;3.644;2023-02-11T11:20:28;30.08;;;19.48;;
52948;SDS011;38812;50.942;3.644;2023-02-11T11:23:19;30.58;;;19.58;;
52948;SDS011;38812;50.942;3.644;2023-02-11T11:28:38;33.53;;;17.20;;
52948;SDS011;38812;50.942;3.644;2023-02-11T11:31:19;24.52;;;17.92;;
52948;SDS011;38812;50.942;3.644;2023-02-11T11:33:47;23.77;;;16.65;;
52948;SDS011;38812;50.942;3.644;2023-02-11T11:36:20;26.08;;;18.02;;
52948;SDS011;38812;50.942;3.644;2023-02-11T11:38:53;24.40;;;16.08;;
52948;SDS011;38812;50.942;3.644;2023-02-11T11:41:26;24.92;;;16.77;;
52948;SDS011;38812;50.942;3.644;2023-02-11T11:43:55;24.48;;;15.95;;
52948;SDS011;38812;50.942;3.644;2023-02-11T11:46:38;24.52;;;16.23;;
52948;SDS011;38812;50.942;3.644;2023-02-11T11:51:57;21.48;;;14.35;;
52948;SDS011;38812;50.942;3.644;2023-02-11T11:54:25;25.48;;;14.30;;
52948;SDS011;38812;50.942;3.644;2023-02-11T11:56:54;21.75;;;14.90;;
52948;SDS011;38812;50.942;3.644;2023-02-11T11:59:27;27.08;;;16.45;;
52948;SDS011;38812;50.942;3.644;2023-02-11T12:10:25;24.08;;;14.90;;
52948;SDS011;38812;50.942;3.644;2023-02-11T12:13:23;22.88;;;16.17;;
52948;SDS011;38812;50.942;3.644;2023-02-11T12:16:08;24.65;;;15.80;;
52948;SDS011;38812;50.942;3.644;2023-02-11T12:21:23;31.95;;;17.30;;
52948;SDS011;38812;50.942;3.644;2023-02-11T12:29:22;21.90;;;15.95;;
52948;SDS011;38812;50.942;3.644;2023-02-11T12:37:28;24.27;;;16.27;;
52948;SDS011;38812;50.942;3.644;2023-02-11T12:59:33;24.85;;;18.42;;
52948;SDS011;38812;50.942;3.644;2023-02-11T13:02:17;33.85;;;20.50;;
52948;SDS011;38812;50.942;3.644;2023-02-11T13:07:56;29.50;;;20.00;;
52948;SDS011;38812;50.942;3.644;2023-02-11T13:10:35;30.73;;;21.73;;
52948;SDS011;38812;50.942;3.644;2023-02-11T13:13:04;30.88;;;21.90;;
52948;SDS011;38812;50.942;3.644;2023-02-11T13:15:51;35.03;;;21.90;;
52948;SDS011;38812;50.942;3.644;2023-02-11T13:18:31;34.20;;;21.90;;
52948;SDS011;38812;50.942;3.644;2023-02-11T13:26:20;33.22;;;21.10;;
52948;SDS011;38812;50.942;3.644;2023-02-11T13:28:55;30.95;;;20.58;;
52948;SDS011;38812;50.942;3.644;2023-02-11T13:31:41;34.60;;;21.65;;
52948;SDS011;38812;50.942;3.644;2023-02-11T13:34:23;31.92;;;22.52;;
52948;SDS011;38812;50.942;3.644;2023-02-11T13:37:12;31.60;;;22.52;;
52948;SDS011;38812;50.942;3.644;2023-02-11T13:42:50;31.08;;;22.38;;
52948;SDS011;38812;50.942;3.644;2023-02-11T13:47:48;36.20;;;23.40;;
52948;SDS011;38812;50.942;3.644;2023-02-11T13:50:22;34.58;;;22.58;;
52948;SDS011;38812;50.942;3.644;2023-02-11T13:52:54;34.85;;;23.20;;
52948;SDS011;38812;50.942;3.644;2023-02-11T13:55:22;35.30;;;22.75;;
52948;SDS011;38812;50.942;3.644;2023-02-11T14:14:23;33.72;;;21.92;;
52948;SDS011;38812;50.942;3.644;2023-02-11T14:22:03;29.02;;;20.65;;
52948;SDS011;38812;50.942;3.644;2023-02-11T14:27:10;33.45;;;22.77;;
52948;SDS011;38812;50.942;3.644;2023-02-11T14:30:04;30.30;;;21.45;;
52948;SDS011;38812;50.942;3.644;2023-02-11T14:41:44;30.73;;;21.05;;
52948;SDS011;38812;50.942;3.644;2023-02-11T14:44:13;32.30;;;21.30;;
52948;SDS011;38812;50.942;3.644;2023-02-11T14:46:45;32.28;;;22.40;;
52948;SDS011;38812;50.942;3.644;2023-02-11T14:49:29;31.10;;;22.67;;
52948;SDS011;38812;50.942;3.644;2023-02-11T14:51:59;32.35;;;20.58;;
52948;SDS011;38812;50.942;3.644;2023-02-11T14:54:38;38.65;;;22.50;;
52948;SDS011;38812;50.942;3.644;2023-02-11T14:59:31;48.88;;;26.50;;
52948;SDS011;38812;50.942;3.644;2023-02-11T15:01:57;32.35;;;22.35;;
52948;SDS011;38812;50.942;3.644;2023-02-11T15:04:27;32.15;;;22.02;;
52948;SDS011;38812;50.942;3.644;2023-02-11T15:06:55;34.95;;;22.52;;
52948;SDS011;38812;50.942;3.644;2023-02-11T15:09:27;40.15;;;21.92;;
52948;SDS011;38812;50.942;3.644;2023-02-11T15:12:03;35.05;;;21.23;;
52948;SDS011;38812;50.942;3.644;2023-02-11T15:14:29;36.80;;;22.65;;
52948;SDS011;38812;50.942;3.644;2023-02-11T15:16:57;37.17;;;22.25;;
52948;SDS011;38812;50.942;3.644;2023-02-11T15:22:06;35.40;;;19.40;;
52948;SDS011;38812;50.942;3.644;2023-02-11T15:24:56;32.83;;;19.75;;
52948;SDS011;38812;50.942;3.644;2023-02-11T15:27:26;31.80;;;20.60;;
52948;SDS011;38812;50.942;3.644;2023-02-11T15:29:51;30.05;;;21.05;;
52948;SDS011;38812;50.942;3.644;2023-02-11T15:32:18;38.20;;;20.98;;
52948;SDS011;38812;50.942;3.644;2023-02-11T15:34:46;36.17;;;22.30;;
52948;SDS011;38812;50.942;3.644;2023-02-11T15:37:13;29.17;;;20.67;;
52948;SDS011;38812;50.942;3.644;2023-02-11T15:39:44;33.90;;;20.55;;
52948;SDS011;38812;50.942;3.644;2023-02-11T15:42:17;33.63;;;21.25;;
52948;SDS011;38812;50.942;3.644;2023-02-11T15:44:44;34.75;;;20.83;;
52948;SDS011;38812;50.942;3.644;2023-02-11T15:47:11;32.17;;;20.70;;
52948;SDS011;38812;50.942;3.644;2023-02-11T15:49:43;32.72;;;20.40;;
52948;SDS011;38812;50.942;3.644;2023-02-11T15:52:09;27.83;;;20.75;;
52948;SDS011;38812;50.942;3.644;2023-02-11T15:54:37;30.00;;;20.83;;
52948;SDS011;38812;50.942;3.644;2023-02-11T15:57:05;30.58;;;20.83;;
52948;SDS011;38812;50.942;3.644;2023-02-11T15:59:34;29.77;;;19.58;;
52948;SDS011;38812;50.942;3.644;2023-02-11T16:02:19;31.25;;;20.85;;
52948;SDS011;38812;50.942;3.644;2023-02-11T16:04:52;29.05;;;19.90;;
52948;SDS011;38812;50.942;3.644;2023-02-11T16:12:52;32.13;;;20.90;;
52948;SDS011;38812;50.942;3.644;2023-02-11T16:15:28;37.17;;;20.10;;
52948;SDS011;38812;50.942;3.644;2023-02-11T16:17:54;32.85;;;20.23;;
52948;SDS011;38812;50.942;3.644;2023-02-11T16:20:20;31.27;;;19.98;;
52948;SDS011;38812;50.942;3.644;2023-02-11T16:22:45;33.47;;;20.95;;
52948;SDS011;38812;50.942;3.644;2023-02-11T16:25:18;35.08;;;21.17;;
52948;SDS011;38812;50.942;3.644;2023-02-11T16:27:47;29.80;;;20.98;;
52948;SDS011;38812;50.942;3.644;2023-02-11T16:32:51;32.03;;;20.75;;
52948;SDS011;38812;50.942;3.644;2023-02-11T16:35:17;32.88;;;21.05;;
52948;SDS011;38812;50.942;3.644;2023-02-11T16:37:42;35.08;;;21.30;;
52948;SDS011;38812;50.942;3.644;2023-02-11T16:40:08;36.67;;;21.67;;
52948;SDS011;38812;50.942;3.644;2023-02-11T16:42:35;38.28;;;22.02;;
52948;SDS011;38812;50.942;3.644;2023-02-11T16:45:01;30.90;;;20.13;;
52948;SDS011;38812;50.942;3.644;2023-02-11T16:47:28;36.78;;;21.90;;
52948;SDS011;38812;50.942;3.644;2023-02-11T16:49:55;32.47;;;21.98;;
52948;SDS011;38812;50.942;3.644;2023-02-11T16:52:22;34.13;;;21.08;;
52948;SDS011;38812;50.942;3.644;2023-02-11T16:54:48;36.72;;;22.50;;
52948;SDS011;38812;50.942;3.644;2023-02-11T16:57:15;29.55;;;20.55;;
52948;SDS011;38812;50.942;3.644;2023-02-11T16:59:42;29.23;;;20.60;;
52948;SDS011;38812;50.942;3.644;2023-02-11T17:02:12;30.98;;;22.38;;
52948;SDS011;38812;50.942;3.644;2023-02-11T17:04:44;34.50;;;20.25;;
52948;SDS011;38812;50.942;3.644;2023-02-11T17:07:10;31.60;;;21.08;;
52948;SDS011;38812;50.942;3.644;2023-02-11T17:09:35;35.03;;;21.45;;
52948;SDS011;38812;50.942;3.644;2023-02-11T17:12:00;32.13;;;20.65;;
52948;SDS011;38812;50.942;3.644;2023-02-11T17:14:26;34.22;;;22.23;;
52948;SDS011;38812;50.942;3.644;2023-02-11T17:16:51;30.52;;;22.48;;
52948;SDS011;38812;50.942;3.644;2023-02-11T17:19:17;32.67;;;21.52;;
52948;SDS011;38812;50.942;3.644;2023-02-11T17:21:45;32.83;;;21.65;;
52948;SDS011;38812;50.942;3.644;2023-02-11T17:24:12;33.67;;;21.83;;
52948;SDS011;38812;50.942;3.644;2023-02-11T17:26:39;33.65;;;20.73;;
52948;SDS011;38812;50.942;3.644;2023-02-11T17:29:06;37.60;;;22.75;;
52948;SDS011;38812;50.942;3.644;2023-02-11T17:31:33;32.63;;;22.48;;